Time;durP1;ratioP1;P1;durP2;ratioP2;P2;SDS_P1;SDS_P2;PMS_P1;PMS_P2;Temp;Humidity;BMP_temperature;BMP_pressure;BME280_temperature;BME280_humidity;BME280_pressure;Samples;Min_cycle;Max_cycle;Signal;HPM_P1;HPM_P2
2022/08/02 00:02:26;;;;;;;21.27;15.45;;;;;;;;;;6254417;28;20052;-60
2022/08/02 00:05:27;;;;;;;21.90;14.67;;;;;;;;;;6251303;28;20693;-59
2022/08/02 00:08:27;;;;;;;20.23;14.70;;;;;;;;;;6248860;28;20427;-59
2022/08/02 00:11:28;;;;;;;20.80;15.03;;;;;;;;;;6251567;28;20052;-60
2022/08/02 00:14:29;;;;;;;19.70;13.80;;;;;;;;;;6250903;28;20060;-59
2022/08/02 00:17:29;;;;;;;20.77;14.20;;;;;;;;;;6252510;28;20087;-60
2022/08/02 00:20:30;;;;;;;22.07;14.60;;;;;;;;;;6249684;28;20071;-59
2022/08/02 00:23:31;;;;;;;20.20;14.23;;;;;;;;;;6247867;28;20053;-59
2022/08/02 00:26:31;;;;;;;21.93;14.70;;;;;;;;;;6252923;28;20446;-59
2022/08/02 00:29:34;;;;;;;19.07;14.30;;;;;;;;;;6246650;28;20056;-60
2022/08/02 00:32:34;;;;;;;18.83;13.57;;;;;;;;;;6250806;28;20481;-60
2022/08/02 00:35:35;;;;;;;19.23;14.10;;;;;;;;;;6251875;28;20064;-59
2022/08/02 00:38:35;;;;;;;18.73;13.70;;;;;;;;;;6248443;28;20044;-60
2022/08/02 00:41:47;;;;;;;20.60;14.40;;;;;;;;;;6252666;28;20134;-59
2022/08/02 00:44:47;;;;;;;28.38;17.02;;;;;;;;;;6251078;28;20053;-60
2022/08/02 00:47:48;;;;;;;25.47;16.37;;;;;;;;;;6249792;28;20716;-60
2022/08/02 00:50:49;;;;;;;26.23;16.03;;;;;;;;;;6253930;28;21459;-60
2022/08/02 00:53:49;;;;;;;24.83;16.53;;;;;;;;;;6249332;28;20103;-60
2022/08/02 00:56:51;;;;;;;29.03;17.10;;;;;;;;;;6253136;28;20074;-61
2022/08/02 00:59:52;;;;;;;26.02;17.35;;;;;;;;;;6247328;28;20044;-59
2022/08/02 01:02:52;;;;;;;23.60;16.17;;;;;;;;;;6250641;28;20102;-60
2022/08/02 01:05:53;;;;;;;25.87;16.50;;;;;;;;;;6249868;28;20051;-61
2022/08/02 01:08:54;;;;;;;26.83;18.40;;;;;;;;;;6251098;28;20083;-60
2022/08/02 01:11:55;;;;;;;24.93;18.00;;;;;;;;;;6247097;28;20041;-59
2022/08/02 01:14:59;;;;;;;24.10;17.63;;;;;;;;;;6252338;28;20041;-60
2022/08/02 01:18:10;;;;;;;26.45;19.17;;;;;;;;;;6250080;28;20045;-61
2022/08/02 01:22:02;;;;;;;28.10;18.88;;;;;;;;;;6250830;28;20056;-60
2022/08/02 01:25:28;;;;;;;29.17;18.63;;;;;;;;;;6248686;28;20053;-59
2022/08/02 01:28:39;;;;;;;24.35;17.00;;;;;;;;;;6251891;28;20055;-59
2022/08/02 01:32:02;;;;;;;32.10;19.52;;;;;;;;;;6250823;28;20600;-60
2022/08/02 01:35:26;;;;;;;30.83;19.77;;;;;;;;;;6248704;28;20876;-60
2022/08/02 01:38:30;;;;;;;29.83;19.13;;;;;;;;;;6247051;28;20391;-59
2022/08/02 01:41:33;;;;;;;34.20;20.92;;;;;;;;;;6251479;28;20074;-60
2022/08/02 01:44:35;;;;;;;38.10;21.73;;;;;;;;;;6248478;28;20515;-59
2022/08/02 01:47:39;;;;;;;33.35;20.65;;;;;;;;;;6245081;28;20133;-59
2022/08/02 01:50:41;;;;;;;32.78;19.55;;;;;;;;;;6250067;28;20249;-59
2022/08/02 01:53:44;;;;;;;;;;;;;;;;;;6249484;28;20134;-61
2022/08/02 01:56:46;;;;;;;30.73;18.35;;;;;;;;;;6246738;28;19929;-59
2022/08/02 01:59:49;;;;;;;30.77;18.92;;;;;;;;;;6248007;28;20064;-60
2022/08/02 02:02:52;;;;;;;36.97;20.40;;;;;;;;;;6247684;28;20057;-60
2022/08/02 02:05:56;;;;;;;34.13;20.10;;;;;;;;;;6249852;28;20048;-59
2022/08/02 02:08:58;;;;;;;39.83;22.42;;;;;;;;;;6248553;28;20049;-59
2022/08/02 02:11:59;;;;;;;41.45;23.05;;;;;;;;;;6248970;28;20052;-60
2022/08/02 02:15:02;;;;;;;43.72;24.40;;;;;;;;;;6255865;28;20037;-60
2022/08/02 02:18:05;;;;;;;41.78;23.95;;;;;;;;;;6254681;28;20053;-59
2022/08/02 02:21:06;;;;;;;45.75;23.48;;;;;;;;;;6254494;28;20087;-60
2022/08/02 02:24:06;;;;;;;44.00;25.67;;;;;;;;;;6254467;28;20045;-60
2022/08/02 02:27:10;;;;;;;47.17;25.07;;;;;;;;;;6274492;28;20071;-61
2022/08/02 02:30:11;;;;;;;44.83;25.40;;;;;;;;;;6271680;28;20048;-61
2022/08/02 02:33:13;;;;;;;47.97;25.35;;;;;;;;;;6275978;28;20513;-61
2022/08/02 02:36:16;;;;;;;47.63;25.00;;;;;;;;;;6281519;28;20424;-61
2022/08/02 02:39:20;;;;;;;42.85;24.02;;;;;;;;;;6283047;28;20137;-61
2022/08/02 02:42:26;;;;;;;39.20;21.85;;;;;;;;;;6287939;28;20133;-61
2022/08/02 02:45:29;;;;;;;35.63;20.88;;;;;;;;;;6286125;28;20045;-60
2022/08/02 02:48:30;;;;;;;33.80;19.92;;;;;;;;;;6289964;28;20529;-61
2022/08/02 02:51:31;;;;;;;;;;;;;;;;;;6289638;28;20230;-61
2022/08/02 02:54:34;;;;;;;31.60;18.80;;;;;;;;;;6276161;28;19921;-61
2022/08/02 02:57:36;;;;;;;30.40;17.00;;;;;;;;;;6277752;28;20041;-61
2022/08/02 03:04:00;;;;;;;24.42;16.02;;;;;;;;;;6281114;28;19925;-61
2022/08/02 03:07:01;;;;;;;25.48;15.88;;;;;;;;;;6280652;28;20086;-61
2022/08/02 03:10:04;;;;;;;26.90;15.70;;;;;;;;;;6277208;28;20075;-61
2022/08/02 03:13:05;;;;;;;28.05;16.85;;;;;;;;;;6280045;28;20499;-61
2022/08/02 03:16:06;;;;;;;26.77;16.90;;;;;;;;;;6287829;28;20070;-60
2022/08/02 03:19:07;;;;;;;26.30;15.95;;;;;;;;;;6276501;28;20979;-60
2022/08/02 03:22:08;;;;;;;27.17;16.17;;;;;;;;;;6282039;28;20048;-60
2022/08/02 03:25:10;;;;;;;28.73;17.13;;;;;;;;;;6278319;28;20049;-60
2022/08/02 03:28:11;;;;;;;27.70;16.25;;;;;;;;;;6283471;28;20054;-61
2022/08/02 03:31:11;;;;;;;28.93;17.23;;;;;;;;;;6274474;28;20040;-61
2022/08/02 03:34:12;;;;;;;27.47;17.13;;;;;;;;;;6279813;28;20048;-61
2022/08/02 03:37:14;;;;;;;30.53;18.07;;;;;;;;;;6280699;28;20051;-59
2022/08/02 03:40:16;;;;;;;35.30;18.63;;;;;;;;;;6285195;28;20052;-62
2022/08/02 03:43:17;;;;;;;29.63;17.08;;;;;;;;;;6280755;28;20044;-59
2022/08/02 03:46:21;;;;;;;34.23;18.50;;;;;;;;;;6280400;28;20085;-60
2022/08/02 03:49:22;;;;;;;31.15;17.25;;;;;;;;;;6274677;28;20154;-61
2022/08/02 03:52:25;;;;;;;;;;;;;;;;;;6264043;28;20560;-61
2022/08/02 03:55:25;;;;;;;;;;;;;;;;;;6265897;28;20006;-61
2022/08/02 03:58:26;;;;;;;31.42;16.88;;;;;;;;;;6276354;28;19928;-60
2022/08/02 04:01:26;;;;;;;32.87;18.07;;;;;;;;;;6277648;28;20557;-61
2022/08/02 04:04:27;;;;;;;31.83;17.13;;;;;;;;;;6277758;28;20495;-61
2022/08/02 04:07:27;;;;;;;34.57;17.60;;;;;;;;;;6263886;28;20484;-60
2022/08/02 04:10:28;;;;;;;33.40;16.90;;;;;;;;;;6265296;28;20045;-61
2022/08/02 04:13:32;;;;;;;28.37;16.23;;;;;;;;;;6261886;28;20114;-60
2022/08/02 04:16:41;;;;;;;30.55;16.25;;;;;;;;;;6264933;28;20072;-60
2022/08/02 04:19:52;;;;;;;33.20;16.83;;;;;;;;;;6268950;28;20056;-60
2022/08/02 04:23:04;;;;;;;35.37;17.07;;;;;;;;;;6258981;28;20514;-60
2022/08/02 04:26:05;;;;;;;31.60;17.48;;;;;;;;;;6265300;28;20067;-61
2022/08/02 04:29:07;;;;;;;29.27;17.42;;;;;;;;;;6262482;28;20056;-61
2022/08/02 04:32:07;;;;;;;30.20;16.77;;;;;;;;;;6261423;28;20057;-59
2022/08/02 04:35:08;;;;;;;29.33;17.23;;;;;;;;;;6264609;28;20458;-61
2022/08/02 04:38:09;;;;;;;30.40;17.63;;;;;;;;;;6266388;28;20045;-60
2022/08/02 04:41:09;;;;;;;29.87;16.50;;;;;;;;;;6255125;28;20045;-60
2022/08/02 04:44:11;;;;;;;32.33;17.73;;;;;;;;;;6258084;28;20069;-61
2022/08/02 04:47:11;;;;;;;30.40;17.77;;;;;;;;;;6261742;28;20519;-60
2022/08/02 04:50:12;;;;;;;30.23;16.80;;;;;;;;;;6265937;28;20037;-61
2022/08/02 04:53:13;;;;;;;35.00;18.13;;;;;;;;;;6258011;28;20716;-61
2022/08/02 04:56:13;;;;;;;33.33;18.37;;;;;;;;;;6259084;28;20393;-60
2022/08/02 04:59:14;;;;;;;28.60;17.33;;;;;;;;;;6262312;28;20074;-61
2022/08/02 05:02:14;;;;;;;30.10;16.97;;;;;;;;;;6263926;28;20048;-61
2022/08/02 05:05:15;;;;;;;30.47;16.70;;;;;;;;;;6264321;28;20052;-61
2022/08/02 05:08:16;;;;;;;32.57;16.83;;;;;;;;;;6260992;28;20045;-60
2022/08/02 05:11:16;;;;;;;31.03;16.73;;;;;;;;;;6259520;28;20087;-61
2022/08/02 05:14:17;;;;;;;32.90;16.30;;;;;;;;;;6259760;28;20132;-61
2022/08/02 05:17:17;;;;;;;32.67;17.17;;;;;;;;;;6260845;28;20521;-61
2022/08/02 05:20:18;;;;;;;27.90;16.33;;;;;;;;;;6258337;28;20045;-61
2022/08/02 05:23:19;;;;;;;29.57;16.27;;;;;;;;;;6263475;28;20052;-61
2022/08/02 05:26:20;;;;;;;32.03;16.93;;;;;;;;;;6265360;28;20111;-60
2022/08/02 05:29:21;;;;;;;32.97;17.63;;;;;;;;;;6268790;28;20049;-61
2022/08/02 05:32:22;;;;;;;29.95;16.98;;;;;;;;;;6265055;28;20172;-61
2022/08/02 05:35:23;;;;;;;32.67;17.67;;;;;;;;;;6266378;28;20049;-62
2022/08/02 05:38:25;;;;;;;31.33;17.33;;;;;;;;;;6269744;28;20174;-60
2022/08/02 05:41:26;;;;;;;;;;;;;;;;;;6281124;28;20198;-61
2022/08/02 05:44:26;;;;;;;32.10;17.60;;;;;;;;;;6276527;28;20260;-62
2022/08/02 05:47:27;;;;;;;32.50;18.10;;;;;;;;;;6268166;28;20159;-61
2022/08/02 05:50:28;;;;;;;35.27;17.70;;;;;;;;;;6270345;28;20045;-60
2022/08/02 05:53:50;;;;;;;34.03;18.00;;;;;;;;;;6261960;28;20609;-61
2022/08/02 05:56:59;;;;;;;39.67;19.20;;;;;;;;;;6267847;28;20419;-61
2022/08/02 06:00:07;;;;;;;37.28;19.67;;;;;;;;;;6270487;28;20186;-61
2022/08/02 06:03:31;;;;;;;36.85;19.70;;;;;;;;;;6268715;28;20098;-61
2022/08/02 06:06:33;;;;;;;41.17;20.40;;;;;;;;;;6265204;28;20045;-62
2022/08/02 06:09:34;;;;;;;;;;;;;;;;;;6272157;28;20045;-60
2022/08/02 06:12:46;;;;;;;37.33;20.65;;;;;;;;;;6265767;28;19928;-62
2022/08/02 06:15:50;;;;;;;39.78;20.52;;;;;;;;;;6266748;28;20531;-61
2022/08/02 06:18:52;;;;;;;39.78;21.25;;;;;;;;;;6270703;28;20053;-61
2022/08/02 06:21:53;;;;;;;47.78;22.73;;;;;;;;;;6283751;28;20056;-61
2022/08/02 06:24:55;;;;;;;43.55;21.90;;;;;;;;;;6281252;28;20052;-61
2022/08/02 06:27:57;;;;;;;44.55;22.52;;;;;;;;;;6273957;28;20049;-61
2022/08/02 06:30:58;;;;;;;36.55;20.88;;;;;;;;;;6266519;28;20141;-61
2022/08/02 06:33:58;;;;;;;39.97;21.10;;;;;;;;;;6264311;28;20484;-58
2022/08/02 06:37:11;;;;;;;36.20;20.77;;;;;;;;;;6266541;28;20056;-61
2022/08/02 06:40:17;;;;;;;36.38;20.45;;;;;;;;;;6265090;28;20045;-60
2022/08/02 06:43:27;;;;;;;37.05;20.35;;;;;;;;;;6265687;28;20417;-57
2022/08/02 06:46:28;;;;;;;38.13;20.17;;;;;;;;;;6269920;28;20060;-61
2022/08/02 06:49:29;;;;;;;35.65;20.65;;;;;;;;;;6268771;28;20199;-60
2022/08/02 06:52:30;;;;;;;33.10;20.73;;;;;;;;;;6277729;28;20208;-61
2022/08/02 06:55:31;;;;;;;37.80;20.52;;;;;;;;;;6269338;28;20094;-61
2022/08/02 06:58:31;;;;;;;32.70;19.60;;;;;;;;;;6265639;28;20474;-60
2022/08/02 07:01:32;;;;;;;34.90;20.60;;;;;;;;;;6267715;28;20484;-61
2022/08/02 07:04:33;;;;;;;31.33;19.03;;;;;;;;;;6267008;28;20498;-61
2022/08/02 07:07:34;;;;;;;30.95;18.20;;;;;;;;;;6271543;28;20136;-61
2022/08/02 07:10:34;;;;;;;27.20;18.60;;;;;;;;;;6267913;28;20041;-60
2022/08/02 07:13:35;;;;;;;30.53;20.20;;;;;;;;;;6267712;28;20438;-60
2022/08/02 07:16:36;;;;;;;29.23;18.90;;;;;;;;;;6270056;28;20053;-61
2022/08/02 07:19:37;;;;;;;30.20;20.55;;;;;;;;;;6266239;28;20071;-58
2022/08/02 07:22:38;;;;;;;32.37;20.97;;;;;;;;;;6262659;28;20076;-58
2022/08/02 07:25:40;;;;;;;29.50;20.33;;;;;;;;;;6264825;28;20052;-61
2022/08/02 07:28:40;;;;;;;31.27;20.85;;;;;;;;;;6302130;28;20458;-59
2022/08/02 07:31:41;;;;;;;32.40;21.40;;;;;;;;;;6251843;28;20037;-59
2022/08/02 07:34:43;;;;;;;31.77;20.90;;;;;;;;;;6268412;28;20134;-61
2022/08/02 07:37:45;;;;;;;31.95;19.98;;;;;;;;;;6264378;28;20049;-61
2022/08/02 07:40:45;;;;;;;29.48;18.48;;;;;;;;;;6264910;28;20472;-57
2022/08/02 07:43:46;;;;;;;26.87;17.77;;;;;;;;;;6264872;28;20098;-61
2022/08/02 07:46:47;;;;;;;28.03;18.03;;;;;;;;;;6260843;28;20400;-60
2022/08/02 07:49:47;;;;;;;25.80;18.23;;;;;;;;;;6250296;28;20049;-61
2022/08/02 07:52:48;;;;;;;27.73;17.43;;;;;;;;;;6253614;28;20049;-58
2022/08/02 07:55:50;;;;;;;28.92;19.55;;;;;;;;;;6253558;28;20063;-60
2022/08/02 07:58:50;;;;;;;26.53;19.33;;;;;;;;;;6251683;28;20049;-60
2022/08/02 08:01:51;;;;;;;27.87;20.43;;;;;;;;;;6249182;28;20041;-61
2022/08/02 08:04:52;;;;;;;28.63;20.27;;;;;;;;;;6287093;28;20478;-60
2022/08/02 08:07:53;;;;;;;28.58;20.05;;;;;;;;;;6247136;28;20041;-61
2022/08/02 08:10:53;;;;;;;29.20;20.70;;;;;;;;;;6248853;28;20585;-61
2022/08/02 08:13:54;;;;;;;28.87;21.33;;;;;;;;;;6249799;28;20049;-61
2022/08/02 08:16:54;;;;;;;29.80;21.63;;;;;;;;;;6251136;28;20559;-60
2022/08/02 08:19:56;;;;;;;27.77;20.37;;;;;;;;;;6252165;28;20084;-60
2022/08/02 08:22:57;;;;;;;;;;;;;;;;;;6254375;28;20584;-60
2022/08/02 08:25:58;;;;;;;26.52;18.33;;;;;;;;;;6245015;28;20011;-60
2022/08/02 08:28:59;;;;;;;27.20;18.20;;;;;;;;;;6248387;28;20051;-60
2022/08/02 08:32:00;;;;;;;23.20;17.50;;;;;;;;;;6250548;28;20056;-60
2022/08/02 08:35:02;;;;;;;22.43;17.60;;;;;;;;;;6249978;28;20048;-60
2022/08/02 08:38:03;;;;;;;22.40;17.50;;;;;;;;;;6249184;28;20051;-59
2022/08/02 08:41:04;;;;;;;23.47;17.47;;;;;;;;;;6249379;28;20049;-59
2022/08/02 08:44:07;;;;;;;22.53;17.77;;;;;;;;;;6249777;28;20053;-60
2022/08/02 08:47:08;;;;;;;23.90;18.60;;;;;;;;;;6254808;28;20412;-60
2022/08/02 08:50:24;;;;;;;24.50;17.17;;;;;;;;;;6279716;28;20061;-57
2022/08/02 08:53:30;;;;;;;21.63;16.02;;;;;;;;;;6247077;28;20785;-61
2022/08/02 08:56:34;;;;;;;19.45;16.52;;;;;;;;;;6251871;28;20095;-60
2022/08/02 08:59:35;;;;;;;19.15;15.85;;;;;;;;;;6252703;28;20052;-59
2022/08/02 09:02:35;;;;;;;22.00;17.90;;;;;;;;;;6251023;28;20041;-60
2022/08/02 09:05:38;;;;;;;19.67;16.60;;;;;;;;;;6249285;28;20049;-60
2022/08/02 09:08:39;;;;;;;20.83;17.42;;;;;;;;;;6254248;28;20054;-61
2022/08/02 09:11:39;;;;;;;26.43;17.57;;;;;;;;;;6255232;28;20088;-60
2022/08/02 09:14:40;;;;;;;20.83;16.30;;;;;;;;;;6254339;28;20745;-60
2022/08/02 09:17:50;;;;;;;18.60;16.33;;;;;;;;;;6249650;28;20045;-60
2022/08/02 09:20:56;;;;;;;22.38;16.83;;;;;;;;;;6257431;28;20060;-57
2022/08/02 09:23:56;;;;;;;19.30;16.88;;;;;;;;;;6288220;28;20044;-60
2022/08/02 09:26:57;;;;;;;19.23;16.60;;;;;;;;;;6247714;28;20072;-60
2022/08/02 09:29:58;;;;;;;26.60;17.70;;;;;;;;;;6247990;28;20046;-60
2022/08/02 09:32:59;;;;;;;19.73;16.57;;;;;;;;;;6249586;28;20045;-60
2022/08/02 09:36:13;;;;;;;19.57;16.57;;;;;;;;;;6260303;28;20057;-61
2022/08/02 09:39:15;;;;;;;19.88;16.75;;;;;;;;;;6252989;28;20928;-60
2022/08/02 09:42:18;;;;;;;22.52;18.00;;;;;;;;;;6249254;28;20102;-61
2022/08/02 09:45:18;;;;;;;18.88;16.52;;;;;;;;;;6283791;28;20052;-60
2022/08/02 09:48:19;;;;;;;18.33;16.40;;;;;;;;;;6250174;28;20083;-61
2022/08/02 09:51:21;;;;;;;17.70;15.57;;;;;;;;;;6282985;28;20042;-60
2022/08/02 09:54:24;;;;;;;17.00;15.20;;;;;;;;;;6253044;28;21141;-61
2022/08/02 09:57:27;;;;;;;17.38;15.57;;;;;;;;;;6249549;28;20152;-61
2022/08/02 10:00:29;;;;;;;19.52;15.65;;;;;;;;;;6248705;28;20056;-60
2022/08/02 10:03:29;;;;;;;15.23;13.00;;;;;;;;;;6248767;28;20057;-60
2022/08/02 10:06:32;;;;;;;19.07;15.70;;;;;;;;;;6251451;28;20800;-59
2022/08/02 10:09:33;;;;;;;18.67;15.50;;;;;;;;;;6248708;28;20053;-60
2022/08/02 10:12:35;;;;;;;21.30;17.40;;;;;;;;;;6249935;28;20495;-60
2022/08/02 10:15:37;;;;;;;18.17;16.20;;;;;;;;;;6252526;28;20048;-60
2022/08/02 10:18:37;;;;;;;18.00;15.98;;;;;;;;;;6250994;28;20049;-60
2022/08/02 10:21:49;;;;;;;19.53;15.33;;;;;;;;;;6253997;28;20374;-59
2022/08/02 10:24:50;;;;;;;19.02;15.77;;;;;;;;;;6246739;28;20045;-60
2022/08/02 10:27:51;;;;;;;;;;;;;;;;;;6250194;28;20142;-61
2022/08/02 10:30:55;;;;;;;16.25;14.55;;;;;;;;;;6249282;28;19963;-61
2022/08/02 10:33:58;;;;;;;18.17;15.30;;;;;;;;;;6257311;28;20099;-61
2022/08/02 10:37:05;;;;;;;16.10;13.57;;;;;;;;;;6268166;28;20069;-61
2022/08/02 10:40:21;;;;;;;20.02;15.18;;;;;;;;;;6266580;28;20159;-61
2022/08/02 10:43:31;;;;;;;16.00;14.25;;;;;;;;;;6266645;28;20544;-61
2022/08/02 10:46:34;;;;;;;17.45;14.63;;;;;;;;;;6269844;28;20895;-60
2022/08/02 10:49:47;;;;;;;17.50;15.15;;;;;;;;;;6268810;28;20084;-61
2022/08/02 10:53:20;;;;;;;18.55;15.10;;;;;;;;;;6271191;28;20102;-61
2022/08/02 10:56:50;;;;;;;18.13;15.32;;;;;;;;;;6273165;28;20049;-60
2022/08/02 11:00:08;;;;;;;18.52;15.15;;;;;;;;;;6262289;28;21227;-61
2022/08/02 11:03:27;;;;;;;15.93;14.25;;;;;;;;;;6268731;28;20059;-61
2022/08/02 11:06:27;;;;;;;17.38;14.00;;;;;;;;;;6271156;28;20509;-62
2022/08/02 11:09:28;;;;;;;17.83;14.00;;;;;;;;;;6270504;28;20049;-60
2022/08/02 11:12:29;;;;;;;18.57;14.23;;;;;;;;;;6265899;28;20056;-59
2022/08/02 11:15:54;;;;;;;17.97;14.77;;;;;;;;;;6265595;28;20041;-60
2022/08/02 11:18:54;;;;;;;15.85;13.88;;;;;;;;;;6266380;28;20052;-60
2022/08/02 11:22:08;;;;;;;16.50;14.80;;;;;;;;;;6280585;28;20059;-60
2022/08/02 11:25:21;;;;;;;18.38;14.30;;;;;;;;;;6261232;28;20128;-60
2022/08/02 11:28:23;;;;;;;16.85;15.07;;;;;;;;;;6263118;28;20163;-60
2022/08/02 11:31:24;;;;;;;19.98;14.75;;;;;;;;;;6270774;28;20786;-60
2022/08/02 11:34:25;;;;;;;20.03;15.13;;;;;;;;;;6273375;28;20045;-60
2022/08/02 11:37:30;;;;;;;17.45;15.13;;;;;;;;;;6284388;28;20056;-60
2022/08/02 11:40:36;;;;;;;18.35;15.07;;;;;;;;;;6290996;28;20355;-61
2022/08/02 11:43:37;;;;;;;15.35;13.75;;;;;;;;;;6291233;28;20139;-61
2022/08/02 11:46:38;;;;;;;19.57;15.00;;;;;;;;;;6288743;28;20453;-61
2022/08/02 11:49:38;;;;;;;19.37;14.53;;;;;;;;;;6288961;28;20491;-61
2022/08/02 11:52:39;;;;;;;16.67;14.33;;;;;;;;;;6287628;28;20045;-61
2022/08/02 11:55:40;;;;;;;17.93;14.03;;;;;;;;;;6278494;28;20052;-61
2022/08/02 11:58:40;;;;;;;15.07;13.47;;;;;;;;;;6291258;28;20622;-60
2022/08/02 12:01:42;;;;;;;15.50;13.77;;;;;;;;;;6284451;28;20053;-59
2022/08/02 12:04:42;;;;;;;17.77;15.70;;;;;;;;;;6267404;28;20049;-61
2022/08/02 12:07:45;;;;;;;16.23;13.10;;;;;;;;;;6268592;28;20480;-61
2022/08/02 12:10:47;;;;;;;14.40;12.90;;;;;;;;;;6266853;28;20135;-60
2022/08/02 12:13:48;;;;;;;15.77;14.18;;;;;;;;;;6268501;28;20416;-60
2022/08/02 12:20:19;;;;;;;21.80;13.80;;;;;;;;;;6252166;28;20056;-61
2022/08/02 12:23:19;;;;;;;15.07;13.52;;;;;;;;;;6268146;28;20052;-62
2022/08/02 12:26:20;;;;;;;18.50;13.60;;;;;;;;;;6266436;28;20083;-61
2022/08/02 12:29:41;;;;;;;13.03;11.70;;;;;;;;;;6270333;28;20060;-59
2022/08/02 12:32:43;;;;;;;14.20;12.80;;;;;;;;;;6289847;28;20122;-60
2022/08/02 12:35:44;;;;;;;16.70;13.40;;;;;;;;;;6280173;28;20071;-61
2022/08/02 12:38:56;;;;;;;15.82;14.10;;;;;;;;;;6281215;28;20083;-61
2022/08/02 12:41:57;;;;;;;15.45;13.27;;;;;;;;;;6289317;28;20453;-59
2022/08/02 12:44:58;;;;;;;13.75;12.35;;;;;;;;;;6288663;28;20679;-61
2022/08/02 12:48:00;;;;;;;12.93;11.63;;;;;;;;;;6269099;28;20045;-60
2022/08/02 12:51:19;;;;;;;;;;;;;;;;;;6268712;28;20075;-60
2022/08/02 12:54:22;;;;;;;13.75;12.35;;;;;;;;;;6260526;28;20372;-61
2022/08/02 12:57:23;;;;;;;13.98;11.93;;;;;;;;;;6266903;28;20194;-61
2022/08/02 13:00:27;;;;;;;14.40;12.00;;;;;;;;;;6265665;28;20053;-59
2022/08/02 13:03:27;;;;;;;16.20;12.65;;;;;;;;;;6265701;28;20511;-60
2022/08/02 13:06:28;;;;;;;13.73;12.23;;;;;;;;;;6264170;28;20045;-59
2022/08/02 13:09:35;;;;;;;16.83;12.77;;;;;;;;;;6261027;28;20614;-60
2022/08/02 13:12:38;;;;;;;16.80;13.10;;;;;;;;;;6264975;28;20172;-61
2022/08/02 13:15:38;;;;;;;14.88;10.75;;;;;;;;;;6267008;28;20127;-60
2022/08/02 13:18:39;;;;;;;15.23;11.03;;;;;;;;;;6252604;28;20599;-60
2022/08/02 13:21:40;;;;;;;13.83;10.83;;;;;;;;;;6262653;28;20152;-61
2022/08/02 13:24:41;;;;;;;12.55;10.20;;;;;;;;;;6267780;28;20305;-60
2022/08/02 13:27:41;;;;;;;11.20;9.83;;;;;;;;;;6271014;28;20183;-59
2022/08/02 13:30:42;;;;;;;11.30;10.10;;;;;;;;;;6271193;28;20053;-61
2022/08/02 13:33:42;;;;;;;11.13;10.00;;;;;;;;;;6271222;28;20044;-60
2022/08/02 13:36:43;;;;;;;13.27;10.27;;;;;;;;;;6277089;28;20055;-59
2022/08/02 13:39:44;;;;;;;11.68;9.95;;;;;;;;;;6279751;28;20048;-60
2022/08/02 13:42:45;;;;;;;11.90;10.13;;;;;;;;;;6274423;28;20151;-60
2022/08/02 13:45:45;;;;;;;13.13;9.30;;;;;;;;;;6280475;28;20040;-60
2022/08/02 13:48:46;;;;;;;11.47;9.60;;;;;;;;;;6275424;28;20131;-60
2022/08/02 13:51:47;;;;;;;10.80;8.87;;;;;;;;;;6275150;28;20068;-59
2022/08/02 13:54:47;;;;;;;11.20;8.55;;;;;;;;;;6278830;28;20116;-62
2022/08/02 13:57:48;;;;;;;11.73;9.23;;;;;;;;;;6281093;28;20472;-62
2022/08/02 14:00:48;;;;;;;9.23;8.17;;;;;;;;;;6281402;28;20045;-62
2022/08/02 14:03:49;;;;;;;10.47;9.37;;;;;;;;;;6284461;28;20045;-61
2022/08/02 14:06:50;;;;;;;11.13;9.50;;;;;;;;;;6279958;28;20060;-60
2022/08/02 14:09:51;;;;;;;11.93;10.38;;;;;;;;;;6276412;28;20479;-59
2022/08/02 14:12:52;;;;;;;14.00;11.40;;;;;;;;;;6293907;28;20089;-60
2022/08/02 14:15:52;;;;;;;14.35;11.32;;;;;;;;;;6272904;28;20059;-59
2022/08/02 14:18:53;;;;;;;14.27;10.67;;;;;;;;;;6280106;28;20451;-60
2022/08/02 14:21:54;;;;;;;12.33;9.70;;;;;;;;;;6259506;28;20101;-60
2022/08/02 14:24:54;;;;;;;12.30;9.40;;;;;;;;;;6257357;28;20389;-59
2022/08/02 14:27:55;;;;;;;11.90;9.63;;;;;;;;;;6260904;28;20102;-59
2022/08/02 14:30:55;;;;;;;14.53;9.87;;;;;;;;;;6257830;28;20041;-60
2022/08/02 14:33:56;;;;;;;13.53;9.90;;;;;;;;;;6257841;28;20171;-60
2022/08/02 14:36:56;;;;;;;12.03;9.00;;;;;;;;;;6259544;28;20037;-59
2022/08/02 14:39:57;;;;;;;11.37;9.27;;;;;;;;;;6257163;28;20060;-59
2022/08/02 14:43:02;;;;;;;10.27;8.70;;;;;;;;;;6257297;28;20306;-59
2022/08/02 14:46:02;;;;;;;11.50;9.60;;;;;;;;;;6258072;28;20057;-60
2022/08/02 14:49:04;;;;;;;11.57;9.07;;;;;;;;;;6260208;28;20106;-60
2022/08/02 14:52:04;;;;;;;11.18;9.23;;;;;;;;;;6256068;28;20163;-60
2022/08/02 14:55:05;;;;;;;10.63;9.47;;;;;;;;;;6260176;28;20098;-60
2022/08/02 14:58:06;;;;;;;10.70;9.07;;;;;;;;;;6258772;28;20739;-60
2022/08/02 15:01:06;;;;;;;10.47;9.07;;;;;;;;;;6255937;28;20084;-59
2022/08/02 15:04:07;;;;;;;10.60;9.20;;;;;;;;;;6258879;28;20053;-60
2022/08/02 15:07:07;;;;;;;9.90;8.53;;;;;;;;;;6261098;28;20715;-61
2022/08/02 15:10:08;;;;;;;10.43;8.93;;;;;;;;;;6257399;28;20052;-61
2022/08/02 15:13:09;;;;;;;13.13;10.23;;;;;;;;;;6256293;28;20052;-56
2022/08/02 15:16:09;;;;;;;11.83;10.60;;;;;;;;;;6258344;28;20059;-59
2022/08/02 15:19:10;;;;;;;9.80;8.20;;;;;;;;;;6257869;28;20378;-60
2022/08/02 15:22:10;;;;;;;11.47;8.27;;;;;;;;;;6254999;28;20067;-60
2022/08/02 15:25:11;;;;;;;10.77;8.90;;;;;;;;;;6259848;28;20053;-60
2022/08/02 15:28:12;;;;;;;10.83;8.40;;;;;;;;;;6260177;28;20045;-61
2022/08/02 15:31:15;;;;;;;9.07;8.10;;;;;;;;;;6254402;28;20060;-60
2022/08/02 15:34:16;;;;;;;9.20;7.55;;;;;;;;;;6259748;28;20049;-60
2022/08/02 15:37:17;;;;;;;9.70;8.10;;;;;;;;;;6259285;28;20103;-59
2022/08/02 15:40:18;;;;;;;8.85;7.95;;;;;;;;;;6256461;28;20060;-59
2022/08/02 15:43:20;;;;;;;8.70;7.90;;;;;;;;;;6260822;28;20045;-61
2022/08/02 15:46:20;;;;;;;11.35;8.60;;;;;;;;;;6262617;28;20049;-59
2022/08/02 15:49:22;;;;;;;12.50;8.80;;;;;;;;;;6257409;28;20064;-60
2022/08/02 15:52:22;;;;;;;12.98;8.35;;;;;;;;;;6255046;28;20079;-60
2022/08/02 15:55:23;;;;;;;11.10;8.67;;;;;;;;;;6260165;28;20057;-60
2022/08/02 15:58:25;;;;;;;11.73;8.73;;;;;;;;;;6259817;28;20052;-60
2022/08/02 16:01:25;;;;;;;12.07;8.82;;;;;;;;;;6256338;28;20575;-61
2022/08/02 16:04:26;;;;;;;11.07;9.57;;;;;;;;;;6258540;28;20140;-61
2022/08/02 16:07:26;;;;;;;11.73;8.57;;;;;;;;;;6257825;28;20415;-60
2022/08/02 16:10:27;;;;;;;10.40;9.40;;;;;;;;;;6256841;28;20058;-60
2022/08/02 16:16:47;;;;;;;13.02;8.50;;;;;;;;;;6261829;28;20055;-61
2022/08/02 16:19:48;;;;;;;9.30;8.00;;;;;;;;;;6266657;28;20052;-61
2022/08/02 16:22:48;;;;;;;9.35;7.72;;;;;;;;;;6257081;28;20064;-60
2022/08/02 16:25:50;;;;;;;12.97;8.43;;;;;;;;;;6266037;28;20084;-60
2022/08/02 16:28:51;;;;;;;11.00;7.95;;;;;;;;;;6268189;28;20037;-60
2022/08/02 16:31:52;;;;;;;11.93;7.73;;;;;;;;;;6264411;28;20139;-62
2022/08/02 16:34:53;;;;;;;8.30;7.45;;;;;;;;;;6267281;28;20067;-61
2022/08/02 16:37:53;;;;;;;10.70;8.13;;;;;;;;;;6263293;28;20087;-62
2022/08/02 16:40:54;;;;;;;10.27;7.55;;;;;;;;;;6259642;28;20040;-61
2022/08/02 16:43:55;;;;;;;8.60;7.67;;;;;;;;;;6262053;28;20408;-60
2022/08/02 16:46:57;;;;;;;9.35;7.65;;;;;;;;;;6257568;28;20964;-61
2022/08/02 16:49:58;;;;;;;8.43;6.97;;;;;;;;;;6263717;28;20045;-63
2022/08/02 16:53:00;;;;;;;8.82;7.53;;;;;;;;;;6260587;28;20044;-67
2022/08/02 16:56:03;;;;;;;8.20;7.40;;;;;;;;;;6259078;28;20059;-62
2022/08/02 16:59:04;;;;;;;8.48;6.90;;;;;;;;;;6260670;28;20488;-64
2022/08/02 17:02:06;;;;;;;7.87;7.07;;;;;;;;;;6259683;28;20139;-65
2022/08/02 17:05:08;;;;;;;8.55;6.82;;;;;;;;;;6258249;28;20525;-62
2022/08/02 17:08:08;;;;;;;;;;;;;;;;;;6262632;28;20055;-64
2022/08/02 17:11:09;;;;;;;8.27;6.80;;;;;;;;;;6258440;28;19928;-62
2022/08/02 17:14:09;;;;;;;8.23;6.53;;;;;;;;;;6256527;28;20048;-62
2022/08/02 17:17:10;;;;;;;8.23;6.83;;;;;;;;;;6261573;28;20049;-60
2022/08/02 17:20:11;;;;;;;9.20;6.15;;;;;;;;;;6260559;28;20095;-61
2022/08/02 17:23:12;;;;;;;9.13;7.15;;;;;;;;;;6260264;28;20056;-63
2022/08/02 17:26:13;;;;;;;8.87;7.30;;;;;;;;;;6261752;28;20060;-62
2022/08/02 17:29:13;;;;;;;10.88;6.85;;;;;;;;;;6259844;28;20060;-61
2022/08/02 17:32:14;;;;;;;11.40;7.83;;;;;;;;;;6254013;28;20045;-64
2022/08/02 17:35:15;;;;;;;9.23;7.07;;;;;;;;;;6260141;28;20103;-64
2022/08/02 17:38:16;;;;;;;9.57;7.97;;;;;;;;;;6258999;28;21077;-65
2022/08/02 17:41:17;;;;;;;8.73;7.22;;;;;;;;;;6257094;28;20320;-65
2022/08/02 17:44:18;;;;;;;10.73;7.83;;;;;;;;;;6263255;28;20064;-62
2022/08/02 17:47:19;;;;;;;9.23;7.43;;;;;;;;;;6256958;28;20104;-63
2022/08/02 17:50:20;;;;;;;;;;;;;;;;;;6259896;28;20071;-60
2022/08/02 17:53:21;;;;;;;8.87;7.40;;;;;;;;;;6264167;28;19929;-62
2022/08/02 17:56:21;;;;;;;9.07;7.27;;;;;;;;;;6264382;28;20075;-63
2022/08/02 17:59:24;;;;;;;12.30;7.87;;;;;;;;;;6263872;28;20063;-62
2022/08/02 18:02:25;;;;;;;10.85;7.75;;;;;;;;;;6259688;28;20336;-63
2022/08/02 18:05:26;;;;;;;8.73;7.68;;;;;;;;;;6265891;28;20045;-61